KAKH/AKH METAR and TAF weather

Enter ICAO airport designator
Station Type Date Time Source
KAKH METAR 2020/06/02 18:54 UTC NOAA

KAKH 021854Z AUTO 21008G15KT 180V250 10SM SCT042 28/16 A3012 RMK AO2 SLP195 T02830161


Station Type Date Time Source
KAKH Decoded METAR 2020/06/02 18:54 UTC NOAA

GASTONIA MUNICIPAL AIRPORT, NC, United States (KAKH) 35-12N 81-09W 243M
Jun 02, 2020 - 02:54 PM EDT / 2020.06.02 1854 UTC
Wind: from the SSW (210 degrees) at 9 MPH (8 KT) gusting to 17 MPH (15 KT) (direction variable):0
Visibility: 10 mile(s):0
Sky conditions: partly cloudy
Temperature: 82.9 F (28.3 C)
Dew Point: 61.0 F (16.1 C)
Relative Humidity: 47%
Pressure (altimeter): 30.12 in. Hg (1019 hPa)
ob: KAKH 021854Z AUTO 21008G15KT 180V250 10SM SCT042 28/16 A3012 RMK AO2 SLP195 T02830161
cycle: 19

Station Type Date Time Source
KAKH TAF UTC NOAA

Error!

Example: see airport list